Time;durP1;ratioP1;P1;durP2;ratioP2;P2;SDS_P1;SDS_P2;PMS_P1;PMS_P2;Temp;Humidity;BMP_temperature;BMP_pressure;BME280_temperature;BME280_humidity;BME280_pressure;Samples;Min_cycle;Max_cycle;Signal;HPM_P1;HPM_P2
2021/10/24 00:01:30;;;;;;;9.50;7.57;;;6.70;55.70;;;;;;5033889;28;20262;-81
2021/10/24 00:03:56;;;;;;;8.37;7.67;;;6.60;56.20;;;;;;5033859;28;20474;-81
2021/10/24 00:06:22;;;;;;;9.03;8.10;;;6.60;56.40;;;;;;5034130;28;20183;-82
2021/10/24 00:08:48;;;;;;;8.87;7.80;;;6.60;56.10;;;;;;5033160;28;20460;-81
2021/10/24 00:11:14;;;;;;;9.17;8.20;;;6.50;56.80;;;;;;5033387;28;20177;-82
2021/10/24 00:13:41;;;;;;;13.33;8.57;;;6.50;57.50;;;;;;5033139;28;20307;-81
2021/10/24 00:16:07;;;;;;;9.40;8.50;;;6.50;57.30;;;;;;5033441;28;20419;-81
2021/10/24 00:18:33;;;;;;;8.70;7.90;;;6.50;57.20;;;;;;5033018;28;20419;-81
2021/10/24 00:20:59;;;;;;;8.37;7.57;;;6.40;57.10;;;;;;5032859;28;20214;-81
2021/10/24 00:23:25;;;;;;;10.43;8.30;;;6.50;57.20;;;;;;5032815;28;20183;-82
2021/10/24 00:25:51;;;;;;;9.33;7.97;;;6.40;57.30;;;;;;5032931;28;20828;-83
2021/10/24 00:28:17;;;;;;;7.27;6.63;;;6.40;57.20;;;;;;5032459;28;20973;-80
2021/10/24 00:30:43;;;;;;;10.50;8.80;;;6.40;56.80;;;;;;5032833;28;20418;-81
2021/10/24 00:33:08;;;;;;;9.37;7.90;;;6.40;57.10;;;;;;5034362;28;20413;-80
2021/10/24 00:35:35;;;;;;;8.73;7.97;;;6.30;57.40;;;;;;5033978;28;20172;-81
2021/10/24 00:38:00;;;;;;;8.90;8.10;;;6.40;57.70;;;;;;5032483;28;20459;-81
2021/10/24 00:40:26;;;;;;;9.70;8.70;;;6.40;57.80;;;;;;5032706;28;20420;-80
2021/10/24 00:42:53;;;;;;;9.70;8.70;;;6.30;57.50;;;;;;5032600;28;20177;-81
2021/10/24 00:45:26;;;;;;;11.03;8.43;;;6.40;58.00;;;;;;5032522;28;20411;-81
2021/10/24 00:47:53;;;;;;;10.10;9.03;;;6.30;57.70;;;;;;5032461;28;20497;-81
2021/10/24 00:50:20;;;;;;;11.57;9.63;;;6.30;57.70;;;;;;5032259;28;20412;-81
2021/10/24 00:52:46;;;;;;;10.33;9.23;;;6.20;57.70;;;;;;5032469;28;20995;-80
2021/10/24 00:55:12;;;;;;;10.90;9.80;;;6.20;58.70;;;;;;5032265;28;20502;-81
2021/10/24 00:57:39;;;;;;;9.87;8.47;;;6.20;58.80;;;;;;5032416;28;20829;-81
2021/10/24 01:00:08;;;;;;;10.30;8.80;;;6.10;58.10;;;;;;5032008;28;20415;-81
2021/10/24 01:02:37;;;;;;;10.93;9.80;;;6.20;58.40;;;;;;5032131;28;20459;-81
2021/10/24 01:05:05;;;;;;;10.63;8.13;;;6.10;58.60;;;;;;5031931;28;20475;-82
2021/10/24 01:07:31;;;;;;;10.20;9.30;;;6.10;58.30;;;;;;5032037;28;20431;-81
2021/10/24 01:09:57;;;;;;;9.43;8.57;;;6.10;58.40;;;;;;5031975;28;20510;-81
2021/10/24 01:12:23;;;;;;;9.90;8.97;;;6.10;57.10;;;;;;5032179;28;20553;-81
2021/10/24 01:14:49;;;;;;;9.50;8.57;;;6.00;57.40;;;;;;5031690;28;20168;-81
2021/10/24 01:17:14;;;;;;;9.30;8.30;;;6.00;57.40;;;;;;5032145;28;20782;-81
2021/10/24 01:19:40;;;;;;;10.93;8.97;;;5.90;57.50;;;;;;5031804;28;20208;-81
2021/10/24 01:22:06;;;;;;;9.30;8.20;;;5.80;57.70;;;;;;5032009;28;20181;-81
2021/10/24 01:24:32;;;;;;;10.30;8.40;;;5.90;57.80;;;;;;5031689;28;20927;-81
2021/10/24 01:26:59;;;;;;;9.60;8.80;;;5.80;57.80;;;;;;5031884;28;20272;-81
2021/10/24 01:29:25;;;;;;;9.57;8.67;;;6.00;58.20;;;;;;5031686;28;20295;-81
2021/10/24 01:31:51;;;;;;;10.30;8.90;;;5.90;57.40;;;;;;5031297;28;20506;-80
2021/10/24 01:34:17;;;;;;;9.47;8.57;;;5.90;56.80;;;;;;5031569;28;20173;-81
2021/10/24 01:36:43;;;;;;;11.07;9.77;;;5.90;57.30;;;;;;5031208;28;20431;-81
2021/10/24 01:39:09;;;;;;;10.73;8.67;;;5.90;57.50;;;;;;5033149;28;20169;-82
2021/10/24 01:41:35;;;;;;;11.20;9.57;;;6.00;57.40;;;;;;5031453;28;20465;-81
2021/10/24 01:44:01;;;;;;;9.13;8.27;;;6.00;57.00;;;;;;5031529;28;20177;-81
2021/10/24 01:46:27;;;;;;;9.37;8.47;;;5.90;57.90;;;;;;5031291;28;20544;-82
2021/10/24 01:48:52;;;;;;;9.80;8.80;;;5.90;57.20;;;;;;5031269;28;20512;-81
2021/10/24 01:51:18;;;;;;;9.93;9.03;;;5.90;57.30;;;;;;5032541;28;20255;-82
2021/10/24 01:53:46;;;;;;;9.13;8.20;;;5.90;57.60;;;;;;5031637;28;20233;-80
2021/10/24 01:56:12;;;;;;;8.97;8.07;;;5.80;57.50;;;;;;5031182;28;20173;-81
2021/10/24 01:58:38;;;;;;;11.70;8.40;;;5.80;57.70;;;;;;5031191;28;20453;-81
2021/10/24 02:01:05;;;;;;;9.77;8.30;;;5.70;57.60;;;;;;5031128;28;20809;-82
2021/10/24 02:03:31;;;;;;;9.10;8.07;;;5.70;58.30;;;;;;5031275;28;20507;-81
2021/10/24 02:05:57;;;;;;;9.53;8.53;;;5.70;58.30;;;;;;5031064;28;20515;-81
2021/10/24 02:08:22;;;;;;;8.83;7.90;;;5.70;58.30;;;;;;5031366;28;20204;-82
2021/10/24 02:10:49;;;;;;;8.97;8.13;;;5.70;58.30;;;;;;5031121;28;20173;-82
2021/10/24 02:13:15;;;;;;;9.03;8.13;;;5.70;58.30;;;;;;5031396;28;20204;-82
2021/10/24 02:15:41;;;;;;;8.87;7.97;;;5.70;58.30;;;;;;5031209;28;20427;-82
2021/10/24 02:18:10;;;;;;;8.97;8.17;;;5.60;58.20;;;;;;5031300;28;20465;-82
2021/10/24 02:20:37;;;;;;;9.13;8.33;;;5.60;58.50;;;;;;5032824;28;20419;-82
2021/10/24 02:23:05;;;;;;;11.70;8.60;;;5.60;58.30;;;;;;5031119;28;20484;-81
2021/10/24 02:25:32;;;;;;;9.38;8.23;;;5.50;58.50;;;;;;5030910;28;20544;-82
2021/10/24 02:27:58;;;;;;;12.50;8.63;;;5.50;58.10;;;;;;5031087;28;20765;-81
2021/10/24 02:30:25;;;;;;;10.50;7.80;;;5.50;58.90;;;;;;5031199;28;20412;-81
2021/10/24 02:32:51;;;;;;;9.37;8.33;;;5.50;58.80;;;;;;5031078;28;20226;-81
2021/10/24 02:35:17;;;;;;;11.70;9.53;;;5.50;59.10;;;;;;5031284;28;20471;-82
2021/10/24 02:37:44;;;;;;;10.20;8.80;;;5.50;58.80;;;;;;5031131;28;20963;-81
2021/10/24 02:40:11;;;;;;;10.77;9.47;;;5.50;58.30;;;;;;5031343;28;20418;-82
2021/10/24 02:42:37;;;;;;;8.70;7.90;;;5.40;59.10;;;;;;5030896;28;20419;-82
2021/10/24 02:45:04;;;;;;;10.00;9.00;;;5.40;59.60;;;;;;5032687;28;20421;-81
2021/10/24 02:47:30;;;;;;;9.63;8.83;;;5.40;59.70;;;;;;5034466;28;20429;-82
2021/10/24 02:49:55;;;;;;;9.10;8.20;;;5.40;59.90;;;;;;5035190;28;20857;-81
2021/10/24 02:52:21;;;;;;;11.47;10.27;;;5.40;59.70;;;;;;5035133;28;20179;-80
2021/10/24 02:54:47;;;;;;;9.93;9.03;;;5.40;59.10;;;;;;5034913;28;20254;-81
2021/10/24 02:57:12;;;;;;;8.90;8.10;;;5.50;59.40;;;;;;5034981;28;20183;-81
2021/10/24 02:59:38;;;;;;;8.50;7.70;;;5.50;59.20;;;;;;5034756;28;20587;-81
2021/10/24 03:02:05;;;;;;;8.90;7.33;;;5.50;59.40;;;;;;5035100;28;20539;-81
2021/10/24 03:04:30;;;;;;;8.07;7.37;;;5.50;58.80;;;;;;5034602;28;20189;-81
2021/10/24 03:06:56;;;;;;;8.80;7.30;;;5.50;59.30;;;;;;5034686;28;20428;-81
2021/10/24 03:09:22;;;;;;;7.73;7.03;;;5.40;58.00;;;;;;5035736;28;20240;-81
2021/10/24 03:11:48;;;;;;;9.77;8.77;;;5.40;58.00;;;;;;5034611;28;20532;-81
2021/10/24 03:14:13;;;;;;;7.77;7.03;;;5.50;58.10;;;;;;5034360;28;20419;-81
2021/10/24 03:16:40;;;;;;;8.77;7.97;;;5.40;58.30;;;;;;5034567;28;20658;-81
2021/10/24 03:19:05;;;;;;;8.53;7.73;;;5.30;58.90;;;;;;5034369;28;20427;-81
2021/10/24 03:21:31;;;;;;;8.53;7.70;;;5.30;59.10;;;;;;5034344;28;20433;-81
2021/10/24 03:23:58;;;;;;;8.87;7.80;;;5.30;59.10;;;;;;5033878;28;20732;-81
2021/10/24 03:26:24;;;;;;;9.10;8.30;;;5.30;59.50;;;;;;5033984;28;20451;-81
2021/10/24 03:28:50;;;;;;;8.67;7.77;;;5.30;59.40;;;;;;5033944;28;20521;-81
2021/10/24 03:31:15;;;;;;;8.50;7.70;;;5.30;59.00;;;;;;5034194;28;20173;-81
2021/10/24 03:33:41;;;;;;;9.33;8.50;;;5.30;58.60;;;;;;5034059;28;20450;-81
2021/10/24 03:36:07;;;;;;;9.33;8.50;;;5.30;59.20;;;;;;5034090;28;20332;-81
2021/10/24 03:38:33;;;;;;;12.80;8.73;;;5.30;58.90;;;;;;5034503;28;20176;-81
2021/10/24 03:40:58;;;;;;;8.73;8.03;;;5.20;59.50;;;;;;5034277;28;20513;-81
2021/10/24 03:43:24;;;;;;;9.40;8.33;;;5.20;59.80;;;;;;5034573;28;20594;-81
2021/10/24 03:45:50;;;;;;;9.20;8.37;;;5.20;59.70;;;;;;5034055;28;20427;-81
2021/10/24 03:48:16;;;;;;;8.97;8.27;;;5.20;59.70;;;;;;5034150;28;20512;-81
2021/10/24 03:50:42;;;;;;;8.30;7.57;;;5.30;59.90;;;;;;5033870;28;20427;-81
2021/10/24 03:53:08;;;;;;;9.50;8.60;;;5.20;59.30;;;;;;5034408;28;20181;-81
2021/10/24 03:55:33;;;;;;;7.73;6.87;;;5.10;59.90;;;;;;5034049;28;20168;-81
2021/10/24 03:58:08;;;;;;;10.50;7.67;;;5.10;59.60;;;;;;5034204;28;20935;-82
2021/10/24 04:00:34;;;;;;;8.00;7.20;;;5.10;59.30;;;;;;5034327;28;20176;-81
2021/10/24 04:03:04;;;;;;;7.07;6.37;;;5.20;59.30;;;;;;5034487;28;20418;-81
2021/10/24 04:05:30;;;;;;;6.77;6.27;;;5.20;58.80;;;;;;5034249;28;20208;-81
2021/10/24 04:07:56;;;;;;;8.17;6.47;;;5.20;58.50;;;;;;5033734;28;20498;-82
2021/10/24 04:10:23;;;;;;;8.00;7.30;;;5.10;58.10;;;;;;5034050;28;20176;-81
2021/10/24 04:12:49;;;;;;;7.73;7.07;;;5.00;59.20;;;;;;5034048;28;20429;-81
2021/10/24 04:15:17;;;;;;;8.00;7.30;;;5.10;59.80;;;;;;5033755;28;20407;-81
2021/10/24 04:17:43;;;;;;;8.80;7.00;;;5.20;59.00;;;;;;5033628;28;20828;-82
2021/10/24 04:20:12;;;;;;;8.40;7.67;;;5.10;59.00;;;;;;5033661;28;20499;-80
2021/10/24 04:22:39;;;;;;;9.77;7.10;;;5.10;59.10;;;;;;5033762;28;20423;-81
2021/10/24 04:25:07;;;;;;;7.10;6.50;;;5.00;59.30;;;;;;5033883;28;20510;-81
2021/10/24 04:27:33;;;;;;;7.10;6.20;;;5.00;60.00;;;;;;5033303;28;20503;-81
2021/10/24 04:29:59;;;;;;;7.93;6.77;;;5.00;59.50;;;;;;5033726;28;20446;-81
2021/10/24 04:32:25;;;;;;;8.43;7.63;;;5.00;59.90;;;;;;5033542;28;20784;-81
2021/10/24 04:34:50;;;;;;;12.63;6.83;;;5.10;59.80;;;;;;5033441;28;20415;-80
2021/10/24 04:37:17;;;;;;;9.20;7.50;;;5.00;59.10;;;;;;5033300;28;20192;-80
2021/10/24 04:39:43;;;;;;;8.47;6.90;;;5.00;59.40;;;;;;5033470;28;20184;-84
2021/10/24 04:42:09;;;;;;;7.80;7.00;;;4.90;60.00;;;;;;5033273;28;20419;-84
2021/10/24 04:44:35;;;;;;;7.30;6.80;;;4.90;59.90;;;;;;5033206;28;20513;-82
2021/10/24 04:47:01;;;;;;;7.77;6.97;;;5.00;59.90;;;;;;5032608;28;20451;-84
2021/10/24 04:49:26;;;;;;;7.70;6.90;;;4.90;60.20;;;;;;5033685;28;20695;-88
2021/10/24 04:51:52;;;;;;;7.63;7.07;;;4.90;60.30;;;;;;5033528;28;20263;-85
2021/10/24 04:54:19;;;;;;;8.70;7.87;;;4.90;60.30;;;;;;5033020;28;20179;-84
2021/10/24 04:56:45;;;;;;;7.77;7.07;;;4.90;60.10;;;;;;5032499;28;20411;-83
2021/10/24 04:59:11;;;;;;;9.27;8.30;;;4.90;59.70;;;;;;5032783;28;20481;-82
2021/10/24 05:01:37;;;;;;;8.30;7.60;;;4.90;60.00;;;;;;5032572;28;20203;-82
2021/10/24 05:04:02;;;;;;;8.73;7.83;;;4.90;60.50;;;;;;5032491;28;20500;-82
2021/10/24 05:06:28;;;;;;;8.43;7.67;;;4.90;60.50;;;;;;5029568;28;20259;-82
2021/10/24 05:08:54;;;;;;;9.57;7.93;;;4.90;60.50;;;;;;5027625;28;20665;-82
2021/10/24 05:11:19;;;;;;;7.73;7.03;;;4.90;60.30;;;;;;5031732;28;20176;-82
2021/10/24 05:13:45;;;;;;;7.70;7.00;;;5.00;59.80;;;;;;5031511;28;20529;-82
2021/10/24 05:16:11;;;;;;;7.17;6.57;;;4.90;59.20;;;;;;5032665;28;20196;-82
2021/10/24 05:18:38;;;;;;;8.40;7.03;;;4.90;60.00;;;;;;5031321;28;20184;-82
2021/10/24 05:21:03;;;;;;;8.00;7.30;;;4.80;60.10;;;;;;5029494;28;20420;-82
2021/10/24 05:23:30;;;;;;;8.27;6.27;;;4.80;59.80;;;;;;5029169;28;20445;-82
2021/10/24 05:25:58;;;;;;;7.33;6.63;;;4.80;59.20;;;;;;5029788;28;20235;-83
2021/10/24 05:28:24;;;;;;;7.97;7.17;;;4.80;59.40;;;;;;5029473;28;20454;-83
2021/10/24 05:30:50;;;;;;;7.60;6.97;;;4.70;60.10;;;;;;5029442;28;20447;-82
2021/10/24 05:33:16;;;;;;;7.70;7.00;;;4.60;60.50;;;;;;5029878;28;20463;-83
2021/10/24 05:35:41;;;;;;;7.17;6.47;;;4.70;60.00;;;;;;5030359;28;20412;-83
2021/10/24 05:38:07;;;;;;;9.67;7.10;;;4.70;60.00;;;;;;5031252;28;20736;-82
2021/10/24 05:40:33;;;;;;;7.80;7.20;;;4.60;60.50;;;;;;5030907;28;20279;-82
2021/10/24 05:42:58;;;;;;;8.33;6.87;;;4.60;60.90;;;;;;5031117;28;20176;-82
2021/10/24 05:45:24;;;;;;;8.37;7.50;;;4.60;60.50;;;;;;5031007;28;20173;-81
2021/10/24 05:47:50;;;;;;;8.70;7.83;;;4.70;60.10;;;;;;5030751;28;20214;-82
2021/10/24 05:50:15;;;;;;;8.40;7.13;;;4.70;60.30;;;;;;5031163;28;20177;-82
2021/10/24 05:52:41;;;;;;;8.80;7.90;;;4.70;59.90;;;;;;5031057;28;20180;-81
2021/10/24 05:55:07;;;;;;;8.33;7.63;;;4.70;60.00;;;;;;5030897;28;20229;-81
2021/10/24 05:57:33;;;;;;;8.00;7.30;;;4.70;60.10;;;;;;5030532;28;20173;-82
2021/10/24 05:59:58;;;;;;;8.17;7.53;;;4.70;60.20;;;;;;5032284;28;20436;-81
2021/10/24 06:02:24;;;;;;;10.50;7.60;;;4.70;59.60;;;;;;5031024;28;20172;-81
2021/10/24 06:04:50;;;;;;;8.00;7.30;;;4.60;60.30;;;;;;5030972;28;20173;-81
2021/10/24 06:07:16;;;;;;;7.50;6.80;;;4.60;61.00;;;;;;5031779;28;20251;-82
2021/10/24 06:12:46;;;;;;;8.07;7.00;;;4.70;60.70;;;;;;5031878;28;20451;-82
2021/10/24 06:15:04;;;;;;;6.20;5.60;;;4.70;59.60;;;;;;5029877;28;20900;-81
2021/10/24 06:17:33;;;;;;;7.10;6.50;;;4.60;59.40;;;;;;5030792;28;20419;-82
2021/10/24 06:19:59;;;;;;;8.57;6.53;;;4.70;59.80;;;;;;5030344;28;20503;-82
2021/10/24 06:22:26;;;;;;;6.80;6.20;;;4.80;59.00;;;;;;5031010;28;20569;-82
2021/10/24 06:24:52;;;;;;;9.80;7.30;;;4.80;59.80;;;;;;5030543;28;20172;-82
2021/10/24 06:27:17;;;;;;;7.83;7.23;;;4.80;59.70;;;;;;5030312;28;20499;-82
2021/10/24 06:29:43;;;;;;;10.30;7.50;;;4.80;59.70;;;;;;5030533;28;20811;-81
2021/10/24 06:32:09;;;;;;;7.63;7.03;;;4.80;59.60;;;;;;5030600;28;20432;-81
2021/10/24 06:34:34;;;;;;;8.87;7.97;;;4.80;60.40;;;;;;5030479;28;20172;-81
2021/10/24 06:37:00;;;;;;;8.07;7.37;;;4.80;59.60;;;;;;5030355;28;20224;-81
2021/10/24 06:39:26;;;;;;;8.07;7.37;;;4.80;60.10;;;;;;5030638;28;20192;-82
2021/10/24 06:41:51;;;;;;;8.53;7.63;;;4.80;59.40;;;;;;5030217;28;20177;-82
2021/10/24 06:44:17;;;;;;;7.37;6.67;;;4.90;60.00;;;;;;5030890;28;20215;-82
2021/10/24 06:46:43;;;;;;;7.23;6.63;;;4.90;59.30;;;;;;5030401;28;20223;-82
2021/10/24 06:49:08;;;;;;;7.93;7.03;;;4.90;59.60;;;;;;5030407;28;20311;-82
2021/10/24 06:51:34;;;;;;;7.60;6.90;;;5.00;58.90;;;;;;5030562;28;20173;-82
2021/10/24 06:54:00;;;;;;;7.67;6.30;;;5.00;59.00;;;;;;5030625;28;20423;-82
2021/10/24 06:56:26;;;;;;;7.37;6.50;;;5.10;59.00;;;;;;5030223;28;20653;-82
2021/10/24 06:58:51;;;;;;;7.70;6.87;;;5.00;59.20;;;;;;5030670;28;20851;-82
2021/10/24 07:01:17;;;;;;;7.90;7.30;;;5.00;58.50;;;;;;5030723;28;20415;-82
2021/10/24 07:03:43;;;;;;;7.00;6.30;;;5.00;58.50;;;;;;5029969;28;20183;-83
2021/10/24 07:06:08;;;;;;;7.10;6.50;;;4.90;58.50;;;;;;5032153;28;20177;-84
2021/10/24 07:08:34;;;;;;;8.80;8.03;;;5.00;59.50;;;;;;5029829;28;20246;-85
2021/10/24 07:11:00;;;;;;;8.13;7.50;;;5.00;58.80;;;;;;5030624;28;20177;-88
2021/10/24 07:13:25;;;;;;;11.03;7.80;;;5.00;58.40;;;;;;5030734;28;20652;-88
2021/10/24 07:15:51;;;;;;;9.37;7.97;;;5.10;59.60;;;;;;5030614;28;20184;-87
2021/10/24 07:18:17;;;;;;;8.07;7.37;;;5.20;58.90;;;;;;5030868;28;20685;-87
2021/10/24 07:20:42;;;;;;;7.07;6.47;;;5.30;58.80;;;;;;5031005;28;20188;-87
2021/10/24 07:23:08;;;;;;;8.50;7.50;;;5.40;58.40;;;;;;5029667;28;20187;-87
2021/10/24 07:25:34;;;;;;;9.57;7.97;;;5.40;58.20;;;;;;5029113;28;20177;-84
2021/10/24 07:27:59;;;;;;;9.07;7.20;;;5.50;57.20;;;;;;5028759;28;20518;-83
2021/10/24 07:30:25;;;;;;;8.60;7.53;;;5.50;57.10;;;;;;5030332;28;20176;-84
2021/10/24 07:32:51;;;;;;;8.17;7.47;;;5.60;57.30;;;;;;5033215;28;20184;-84
2021/10/24 07:35:17;;;;;;;6.63;6.13;;;5.70;57.30;;;;;;5033652;28;20172;-84
2021/10/24 07:37:43;;;;;;;6.37;5.87;;;5.70;55.40;;;;;;5033406;28;20443;-84
2021/10/24 07:40:10;;;;;;;7.10;6.50;;;5.70;54.90;;;;;;5033749;28;20458;-87
2021/10/24 07:42:37;;;;;;;8.43;6.57;;;5.80;54.70;;;;;;5033652;28;20424;-87
2021/10/24 07:45:04;;;;;;;7.53;6.83;;;5.80;53.90;;;;;;5033444;28;20450;-88
2021/10/24 07:47:30;;;;;;;7.57;6.97;;;5.60;53.40;;;;;;5033567;28;20416;-87
2021/10/24 07:50:05;;;;;;;7.97;7.10;;;5.70;54.60;;;;;;5033658;28;20464;-88
2021/10/24 07:52:31;;;;;;;7.43;6.90;;;5.70;54.10;;;;;;5033633;28;20542;-87
2021/10/24 07:54:57;;;;;;;8.13;6.80;;;5.70;54.60;;;;;;5033270;28;20419;-87
2021/10/24 07:57:23;;;;;;;9.73;8.73;;;5.90;54.30;;;;;;5033512;28;20419;-87
2021/10/24 07:59:48;;;;;;;7.70;7.03;;;5.90;52.90;;;;;;5033657;28;20180;-87
2021/10/24 08:02:18;;;;;;;8.20;7.40;;;5.90;53.80;;;;;;5034905;28;20407;-86
2021/10/24 08:04:45;;;;;;;7.80;7.03;;;6.00;54.60;;;;;;5033776;28;20172;-87
2021/10/24 08:07:11;;;;;;;8.47;7.60;;;6.20;54.70;;;;;;5033204;28;20411;-87
2021/10/24 08:09:37;;;;;;;8.07;7.40;;;6.10;52.90;;;;;;5033294;28;20463;-86
2021/10/24 08:12:03;;;;;;;8.37;7.20;;;6.30;53.70;;;;;;5033229;28;20415;-86
2021/10/24 08:14:28;;;;;;;7.50;6.80;;;6.30;52.50;;;;;;5033254;28;20169;-87
2021/10/24 08:16:55;;;;;;;8.00;7.17;;;6.40;52.40;;;;;;5033187;28;20759;-87
2021/10/24 08:19:21;;;;;;;8.00;7.20;;;6.50;52.10;;;;;;5033072;28;20180;-86
2021/10/24 08:21:47;;;;;;;9.13;8.17;;;6.50;52.40;;;;;;5032996;28;20422;-86
2021/10/24 08:24:13;;;;;;;8.03;7.23;;;6.60;52.30;;;;;;5033036;28;20233;-86
2021/10/24 08:26:39;;;;;;;8.17;7.10;;;6.60;52.90;;;;;;5032888;28;20415;-86
2021/10/24 08:29:04;;;;;;;8.17;7.37;;;6.60;52.20;;;;;;5032758;28;20207;-87
2021/10/24 08:31:30;;;;;;;7.20;6.53;;;6.70;52.60;;;;;;5032956;28;20415;-86
2021/10/24 08:33:57;;;;;;;8.50;6.80;;;6.80;52.90;;;;;;5032905;28;20187;-86
2021/10/24 08:36:24;;;;;;;7.57;6.97;;;6.80;53.10;;;;;;5032622;28;20432;-86
2021/10/24 08:38:50;;;;;;;8.67;7.87;;;7.00;52.30;;;;;;5032673;28;20810;-86
2021/10/24 08:41:27;;;;;;;9.73;8.33;;;7.10;52.10;;;;;;5032663;28;20422;-86
2021/10/24 08:43:55;;;;;;;8.80;7.73;;;7.20;52.10;;;;;;5033002;28;20429;-86
2021/10/24 08:46:21;;;;;;;8.57;7.83;;;7.30;52.00;;;;;;5032534;28;20514;-87
2021/10/24 08:48:48;;;;;;;8.20;7.50;;;7.40;51.40;;;;;;5032332;28;20486;-86
2021/10/24 08:51:17;;;;;;;9.43;8.57;;;7.50;51.80;;;;;;5032470;28;20469;-87
2021/10/24 08:53:45;;;;;;;10.13;9.23;;;7.50;51.20;;;;;;5032305;28;20419;-87
2021/10/24 08:56:19;;;;;;;8.73;7.90;;;7.60;50.40;;;;;;5032540;28;20503;-87
2021/10/24 08:58:46;;;;;;;9.60;8.57;;;7.70;50.50;;;;;;5032260;28;20444;-87
2021/10/24 09:01:15;;;;;;;8.67;7.83;;;7.80;49.70;;;;;;5032564;28;20423;-87
2021/10/24 09:04:07;;;;;;;9.10;8.27;;;7.80;49.60;;;;;;5032441;28;20450;-86
2021/10/24 09:06:47;;;;;;;8.33;7.50;;;8.00;49.70;;;;;;5032409;28;20423;-87
2021/10/24 09:09:22;;;;;;;7.67;6.93;;;8.00;50.60;;;;;;5032238;28;20462;-87
2021/10/24 09:12:03;;;;;;;7.50;6.90;;;8.10;48.40;;;;;;5032128;28;20411;-88
2021/10/24 09:14:44;;;;;;;7.67;6.97;;;8.20;48.70;;;;;;5032005;28;20415;-87
2021/10/24 09:17:11;;;;;;;8.43;7.53;;;8.30;48.20;;;;;;5031884;28;20502;-87
2021/10/24 09:19:42;;;;;;;7.30;6.70;;;8.40;49.20;;;;;;5032223;28;20449;-85
2021/10/24 09:22:16;;;;;;;8.10;7.40;;;8.40;47.10;;;;;;5032016;28;20419;-86
2021/10/24 09:25:02;;;;;;;7.50;6.90;;;8.40;48.00;;;;;;5031971;28;20951;-86
2021/10/24 09:28:06;;;;;;;9.47;7.43;;;8.50;48.20;;;;;;5031886;28;20412;-86
2021/10/24 09:30:36;;;;;;;7.73;7.07;;;8.60;46.90;;;;;;5026947;28;20431;-85
2021/10/24 09:33:10;;;;;;;8.43;7.53;;;8.70;46.80;;;;;;5032023;28;20415;-87
2021/10/24 09:35:42;;;;;;;8.80;7.90;;;8.80;47.70;;;;;;5031539;28;21116;-87
2021/10/24 09:38:15;;;;;;;10.43;7.10;;;8.80;47.00;;;;;;5031622;28;20411;-87
2021/10/24 09:40:46;;;;;;;7.77;6.97;;;8.90;46.60;;;;;;5032886;28;20408;-86
2021/10/24 09:43:30;;;;;;;8.47;7.67;;;9.10;46.20;;;;;;5031621;28;20419;-86
2021/10/24 09:45:56;;;;;;;6.80;6.30;;;9.20;45.30;;;;;;5031538;28;20767;-88
2021/10/24 09:48:23;;;;;;;8.10;7.30;;;9.30;46.30;;;;;;5031289;28;20461;-87
2021/10/24 09:50:51;;;;;;;7.40;6.73;;;9.40;45.20;;;;;;5031367;28;20179;-87
2021/10/24 09:53:23;;;;;;;6.87;6.27;;;9.40;44.20;;;;;;5030894;28;20440;-87
2021/10/24 09:56:00;;;;;;;7.53;7.03;;;9.50;45.00;;;;;;5031209;28;20414;-86
2021/10/24 09:58:31;;;;;;;8.80;7.87;;;9.60;44.60;;;;;;5032561;28;20773;-84
2021/10/24 10:00:58;;;;;;;6.63;6.03;;;9.70;44.80;;;;;;5031005;28;20760;-84
2021/10/24 10:03:24;;;;;;;6.47;5.90;;;9.90;44.00;;;;;;5031353;28;20502;-84
2021/10/24 10:05:52;;;;;;;8.53;7.00;;;10.00;44.00;;;;;;5030908;28;20474;-83
2021/10/24 10:08:18;;;;;;;7.90;6.60;;;10.00;41.60;;;;;;5030795;28;20492;-83
2021/10/24 10:10:51;;;;;;;7.50;6.90;;;10.10;44.00;;;;;;5031071;28;20824;-84
2021/10/24 10:13:22;;;;;;;14.27;7.63;;;10.20;43.50;;;;;;5031028;28;20418;-83
2021/10/24 10:15:49;;;;;;;6.43;5.93;;;10.20;43.40;;;;;;5030859;28;20485;-85
2021/10/24 10:18:15;;;;;;;7.13;5.73;;;10.20;41.80;;;;;;5031215;28;20477;-89
2021/10/24 10:21:04;;;;;;;6.73;4.80;;;10.20;43.00;;;;;;5028138;28;20415;-89
2021/10/24 10:23:40;;;;;;;5.93;5.40;;;10.20;42.50;;;;;;5018220;28;20840;-90
2021/10/24 10:26:33;;;;;;;6.20;5.70;;;10.20;42.60;;;;;;5030650;28;20454;-90
2021/10/24 10:28:59;;;;;;;8.63;5.50;;;10.30;41.90;;;;;;5032879;28;20463;-89
2021/10/24 10:31:25;;;;;;;5.50;4.60;;;10.50;39.50;;;;;;5030712;28;20411;-83
2021/10/24 10:34:03;;;;;;;4.43;4.03;;;10.60;41.90;;;;;;5030940;28;20776;-85
2021/10/24 10:36:44;;;;;;;5.60;4.40;;;10.50;41.60;;;;;;5030311;28;20438;-84
2021/10/24 10:39:31;;;;;;;5.50;5.00;;;10.50;42.30;;;;;;5010944;28;20796;-82
2021/10/24 10:42:04;;;;;;;4.53;4.13;;;10.90;40.70;;;;;;5010988;28;20433;-86
2021/10/24 10:44:32;;;;;;;5.23;4.83;;;10.80;42.30;;;;;;5011380;28;20507;-81
2021/10/24 10:46:57;;;;;;;5.67;5.00;;;11.40;45.50;;;;;;5010926;28;20920;-86
2021/10/24 10:49:25;;;;;;;4.83;4.10;;;11.30;38.90;;;;;;5011276;28;20463;-89
2021/10/24 10:52:15;;;;;;;5.37;4.87;;;11.30;42.40;;;;;;5028730;28;20263;-90
2021/10/24 10:54:57;;;;;;;6.27;4.93;;;11.30;37.80;;;;;;5031720;28;20412;-89
2021/10/24 10:57:29;;;;;;;5.50;4.90;;;11.30;39.10;;;;;;5028963;28;20422;-88
2021/10/24 11:00:00;;;;;;;4.53;4.10;;;11.20;39.70;;;;;;5032262;28;20518;-85
2021/10/24 11:02:28;;;;;;;4.40;4.10;;;11.30;40.00;;;;;;5032751;28;20915;-90
2021/10/24 11:04:56;;;;;;;4.60;4.20;;;11.30;39.40;;;;;;5030984;28;20415;-89
2021/10/24 11:07:43;;;;;;;6.57;4.70;;;11.20;40.10;;;;;;5035207;28;20522;-89
2021/10/24 11:10:47;;;;;;;5.70;5.20;;;11.30;39.40;;;;;;5035914;28;20419;-88
2021/10/24 11:13:31;;;;;;;5.23;4.83;;;11.40;39.60;;;;;;5037005;28;20410;-88
2021/10/24 11:16:15;;;;;;;6.17;4.30;;;11.50;39.10;;;;;;5036205;28;20408;-89
2021/10/24 11:18:41;;;;;;;5.70;5.20;;;11.60;38.20;;;;;;5035345;28;20904;-88
2021/10/24 11:21:07;;;;;;;5.37;4.73;;;11.60;38.40;;;;;;5036511;28;20526;-88
2021/10/24 11:23:34;;;;;;;5.43;4.53;;;11.60;37.60;;;;;;5035828;28;20268;-89
2021/10/24 11:26:09;;;;;;;7.10;5.20;;;11.60;38.70;;;;;;5035636;28;20457;-89
2021/10/24 11:28:36;;;;;;;5.53;4.47;;;11.60;38.40;;;;;;5037051;28;20458;-89
2021/10/24 11:31:07;;;;;;;9.77;6.90;;;11.60;39.30;;;;;;5035606;28;20779;-88
2021/10/24 11:33:50;;;;;;;4.83;4.43;;;11.60;39.80;;;;;;5034812;28;20415;-89
2021/10/24 11:36:24;;;;;;;7.47;4.20;;;11.50;40.50;;;;;;5034175;28;20838;-89
2021/10/24 11:39:01;;;;;;;5.53;4.80;;;11.50;40.40;;;;;;5034709;28;20843;-89
2021/10/24 11:41:27;;;;;;;5.43;4.20;;;11.50;40.70;;;;;;5030118;28;20947;-82
2021/10/24 11:44:12;;;;;;;4.87;4.47;;;11.40;41.00;;;;;;5029519;28;20469;-82
2021/10/24 11:46:38;;;;;;;6.77;5.47;;;11.50;40.80;;;;;;5030087;28;20942;-86
2021/10/24 11:49:05;;;;;;;7.00;5.20;;;11.50;40.20;;;;;;5030785;28;20546;-86
2021/10/24 11:51:34;;;;;;;5.60;5.20;;;11.50;40.40;;;;;;5028686;28;20420;-85
2021/10/24 11:54:02;;;;;;;6.73;5.93;;;11.50;40.60;;;;;;5030679;28;20416;-86
2021/10/24 12:02:10;;;;;;;5.93;4.57;;;11.60;40.60;;;;;;5012381;28;20428;-85
2021/10/24 12:04:36;;;;;;;5.57;4.07;;;11.70;40.50;;;;;;4995975;28;20424;-86
2021/10/24 12:07:06;;;;;;;4.50;4.20;;;11.70;40.40;;;;;;5013516;28;20486;-86
2021/10/24 12:09:39;;;;;;;6.23;3.53;;;11.70;40.40;;;;;;5033405;28;20668;-85
2021/10/24 12:12:27;;;;;;;5.00;4.50;;;11.70;40.20;;;;;;5033347;28;20990;-85
2021/10/24 12:14:59;;;;;;;5.03;4.73;;;11.70;39.90;;;;;;5033186;28;20415;-86
2021/10/24 12:17:36;;;;;;;4.60;4.10;;;11.80;39.10;;;;;;5033557;28;20408;-86
2021/10/24 12:20:25;;;;;;;3.70;3.40;;;11.80;39.70;;;;;;5033724;28;20426;-89
2021/10/24 12:22:55;;;;;;;5.83;4.23;;;11.80;39.50;;;;;;5035065;28;20836;-91
2021/10/24 12:25:41;;;;;;;4.33;4.03;;;11.70;39.30;;;;;;5035770;28;20506;-92
2021/10/24 12:28:14;;;;;;;4.90;4.40;;;11.90;38.20;;;;;;5036637;28;20463;-93
2021/10/24 12:30:42;;;;;;;5.23;3.93;;;11.90;38.70;;;;;;5037636;28;20412;-92
2021/10/24 12:33:12;;;;;;;5.67;4.80;;;11.90;39.10;;;;;;5035334;28;20422;-89
2021/10/24 12:35:48;;;;;;;4.73;3.80;;;11.90;39.30;;;;;;5036756;28;20400;-91
2021/10/24 12:38:16;;;;;;;5.13;4.20;;;11.90;39.40;;;;;;5034975;28;20470;-86
2021/10/24 12:40:54;;;;;;;4.10;3.80;;;11.90;39.70;;;;;;5033971;28;20438;-84
2021/10/24 12:43:20;;;;;;;5.17;4.67;;;12.00;39.50;;;;;;5034914;28;20399;-85
2021/10/24 12:45:49;;;;;;;6.03;4.83;;;12.10;39.40;;;;;;5033498;28;20935;-84
2021/10/24 12:48:15;;;;;;;5.00;4.23;;;12.10;38.10;;;;;;5032635;28;20459;-85
2021/10/24 12:50:42;;;;;;;5.47;4.17;;;12.30;37.30;;;;;;5031514;28;20426;-85
2021/10/24 12:53:17;;;;;;;4.50;4.20;;;12.30;38.80;;;;;;5033044;28;20412;-91
2021/10/24 12:56:04;;;;;;;5.23;4.77;;;12.30;38.40;;;;;;5034980;28;20415;-91
2021/10/24 12:58:31;;;;;;;3.70;3.40;;;12.30;38.60;;;;;;5035022;28;20869;-90
2021/10/24 13:00:57;;;;;;;4.70;4.17;;;12.30;38.30;;;;;;5035647;28;20444;-90
2021/10/24 13:03:22;;;;;;;4.30;3.90;;;12.40;38.30;;;;;;5034901;28;20461;-88
2021/10/24 13:05:49;;;;;;;4.77;3.80;;;12.40;37.90;;;;;;5034454;28;20177;-92
2021/10/24 13:08:15;;;;;;;4.63;4.13;;;12.40;39.30;;;;;;5034459;28;20573;-90